Time;durP1;ratioP1;P1;durP2;ratioP2;P2;SDS_P1;SDS_P2;PMS_P1;PMS_P2;Temp;Humidity;BMP_temperature;BMP_pressure;BME280_temperature;BME280_humidity;BME280_pressure;Samples;Min_cycle;Max_cycle;Signal;HPM_P1;HPM_P2
2022/08/25 00:01:42;;;;;;;0.32;0.32;;;22.90;99.90;;;;;;5002387;28;20052;-70
2022/08/25 00:04:11;;;;;;;0.65;0.65;;;22.80;99.90;;;;;;4990701;28;20046;-70
2022/08/25 00:06:41;;;;;;;0.55;0.55;;;22.80;99.90;;;;;;4991536;28;20054;-70
2022/08/25 00:09:07;;;;;;;0.80;0.80;;;22.80;99.90;;;;;;4993275;28;20062;-70
2022/08/25 00:11:34;;;;;;;0.32;0.30;;;22.80;99.90;;;;;;5007114;28;20042;-70
2022/08/25 00:14:05;;;;;;;7.53;1.75;;;22.80;99.90;;;;;;4990065;28;20050;-70
2022/08/25 00:16:31;;;;;;;0.45;0.40;;;22.80;99.90;;;;;;5007192;28;20038;-69
2022/08/25 00:19:02;;;;;;;1.27;0.52;;;22.70;99.90;;;;;;4990045;28;20504;-70
2022/08/25 00:21:30;;;;;;;0.47;0.47;;;22.80;99.90;;;;;;5007539;28;20042;-70
2022/08/25 00:23:56;;;;;;;1.13;0.65;;;22.70;99.90;;;;;;4997391;28;20081;-70
2022/08/25 00:26:22;;;;;;;0.38;0.38;;;22.80;99.90;;;;;;4997653;28;20041;-70
2022/08/25 00:28:48;;;;;;;0.40;0.40;;;22.80;99.90;;;;;;4989972;28;20493;-69
2022/08/25 00:31:16;;;;;;;2.33;1.95;;;22.80;99.90;;;;;;4993752;28;20049;-69
2022/08/25 00:33:43;;;;;;;0.52;0.50;;;22.80;99.90;;;;;;4994358;28;20048;-70
2022/08/25 00:36:12;;;;;;;0.75;0.75;;;22.80;99.90;;;;;;4994130;28;20443;-70
2022/08/25 00:38:39;;;;;;;1.30;0.32;;;22.80;99.90;;;;;;5006247;28;20046;-70
2022/08/25 00:41:06;;;;;;;1.02;0.38;;;22.80;99.90;;;;;;5005258;28;20436;-70
2022/08/25 00:43:58;;;;;;;0.65;0.65;;;22.80;99.90;;;;;;4993016;28;20046;-70
2022/08/25 00:46:34;;;;;;;1.35;0.55;;;22.80;99.90;;;;;;4995486;28;20526;-70
2022/08/25 00:49:04;;;;;;;0.45;0.45;;;22.80;99.90;;;;;;5008620;28;20123;-70
2022/08/25 00:51:42;;;;;;;0.63;0.57;;;22.80;99.90;;;;;;4998263;28;20038;-70
2022/08/25 00:54:14;;;;;;;0.10;0.10;;;22.80;99.90;;;;;;4987084;28;20506;-70
2022/08/25 00:56:40;;;;;;;0.30;0.30;;;22.80;99.90;;;;;;4996832;28;20041;-70
2022/08/25 00:59:06;;;;;;;0.22;0.22;;;22.70;99.90;;;;;;4989254;28;20054;-70
2022/08/25 01:01:33;;;;;;;0.20;0.20;;;22.70;99.90;;;;;;4993000;28;20113;-70
2022/08/25 01:03:58;;;;;;;0.15;0.15;;;22.70;99.90;;;;;;4997116;28;20065;-70
2022/08/25 01:06:24;;;;;;;0.10;0.10;;;22.60;99.90;;;;;;5006250;28;20038;-70
2022/08/25 01:08:51;;;;;;;0.00;0.00;;;22.60;99.90;;;;;;4993111;28;20056;-69
2022/08/25 01:11:17;;;;;;;0.52;0.52;;;22.60;99.90;;;;;;4994228;28;20042;-70
2022/08/25 01:13:47;;;;;;;16.30;0.60;;;22.60;99.90;;;;;;5006903;28;20053;-69
2022/08/25 01:16:14;;;;;;;2.10;0.50;;;22.60;99.90;;;;;;5005912;28;20042;-69
2022/08/25 01:18:48;;;;;;;0.20;0.20;;;22.60;99.90;;;;;;4991027;28;20057;-69
2022/08/25 01:21:15;;;;;;;0.30;0.30;;;22.60;99.90;;;;;;4997433;28;20209;-69
2022/08/25 01:23:40;;;;;;;0.38;0.20;;;22.60;99.90;;;;;;4993065;28;20049;-70
2022/08/25 01:26:17;;;;;;;0.32;0.25;;;22.60;99.90;;;;;;5005886;28;20046;-70
2022/08/25 01:31:29;;;;;;;0.10;0.10;;;22.60;99.90;;;;;;4998031;28;20046;-70
2022/08/25 01:33:56;;;;;;;0.73;0.60;;;22.50;99.90;;;;;;5000085;28;20069;-70
2022/08/25 01:36:23;;;;;;;1.00;0.93;;;22.40;99.90;;;;;;5005693;28;20383;-70
2022/08/25 01:38:49;;;;;;;0.28;0.17;;;22.50;99.90;;;;;;5000840;28;20047;-70
2022/08/25 01:41:21;;;;;;;0.98;0.50;;;22.40;99.90;;;;;;4993374;28;20037;-70
2022/08/25 01:43:46;;;;;;;0.68;0.40;;;22.40;99.90;;;;;;4995713;28;20081;-70
2022/08/25 01:46:13;;;;;;;0.10;0.10;;;22.40;99.90;;;;;;5007469;28;20080;-70
2022/08/25 01:48:38;;;;;;;0.60;0.55;;;22.40;99.90;;;;;;4995925;28;20051;-70
2022/08/25 01:51:04;;;;;;;1.50;1.40;;;22.40;99.90;;;;;;4995410;28;20084;-70
2022/08/25 01:53:31;;;;;;;0.35;0.35;;;22.40;99.90;;;;;;4996570;28;20564;-70
2022/08/25 01:56:04;;;;;;;2.13;0.43;;;22.40;99.90;;;;;;4998604;28;20464;-70
2022/08/25 01:58:37;;;;;;;0.30;0.30;;;22.30;99.90;;;;;;5009775;28;20065;-70
2022/08/25 02:01:08;;;;;;;0.25;0.25;;;22.30;99.90;;;;;;4994752;28;20046;-70
2022/08/25 02:03:38;;;;;;;0.00;0.00;;;22.30;99.90;;;;;;5000535;28;20042;-70
2022/08/25 02:06:05;;;;;;;0.63;0.45;;;22.30;99.90;;;;;;5010987;28;20053;-70
2022/08/25 02:08:31;;;;;;;0.25;0.25;;;22.30;99.90;;;;;;5005364;28;20038;-70
2022/08/25 02:10:57;;;;;;;0.10;0.10;;;22.30;99.90;;;;;;4999706;28;20581;-69
2022/08/25 02:13:22;;;;;;;6.18;1.75;;;22.20;99.90;;;;;;4999460;28;20038;-70
2022/08/25 02:15:51;;;;;;;0.93;0.85;;;22.20;99.90;;;;;;4999001;28;20042;-69
2022/08/25 02:18:18;;;;;;;0.52;0.52;;;22.30;99.90;;;;;;4995997;28;20043;-69
2022/08/25 02:20:44;;;;;;;0.32;0.32;;;22.20;99.90;;;;;;4991587;28;20069;-69
2022/08/25 02:23:11;;;;;;;0.30;0.30;;;22.20;99.90;;;;;;4995771;28;20078;-69
2022/08/25 02:25:38;;;;;;;0.22;0.22;;;22.20;99.90;;;;;;5002503;28;20072;-70
2022/08/25 02:28:05;;;;;;;0.22;0.22;;;22.20;99.90;;;;;;4999297;28;20046;-69
2022/08/25 02:30:31;;;;;;;0.10;0.10;;;22.10;99.90;;;;;;4999728;28;20045;-69
2022/08/25 02:32:57;;;;;;;2.33;1.17;;;22.10;99.90;;;;;;5001996;28;20058;-69
2022/08/25 02:35:23;;;;;;;0.30;0.30;;;22.10;99.90;;;;;;4992924;28;20132;-69
2022/08/25 02:37:50;;;;;;;0.80;0.80;;;22.10;99.90;;;;;;4997092;28;20038;-69
2022/08/25 02:40:17;;;;;;;0.05;0.05;;;22.10;99.90;;;;;;5010937;28;20110;-69
2022/08/25 02:42:43;;;;;;;0.10;0.05;;;22.10;99.90;;;;;;5004677;28;20050;-70
2022/08/25 02:45:09;;;;;;;0.00;0.00;;;22.10;99.90;;;;;;4998283;28;20050;-69
2022/08/25 02:47:35;;;;;;;0.32;0.32;;;22.00;99.90;;;;;;5003307;28;20041;-69
2022/08/25 02:50:03;;;;;;;0.40;0.32;;;21.90;99.90;;;;;;4991194;28;20046;-70
2022/08/25 02:52:28;;;;;;;0.50;0.50;;;21.90;99.90;;;;;;4993347;28;20034;-70
2022/08/25 02:54:54;;;;;;;0.60;0.60;;;21.90;99.90;;;;;;4996129;28;20558;-69
2022/08/25 02:57:20;;;;;;;0.35;0.35;;;21.90;99.90;;;;;;4991299;28;20047;-69
2022/08/25 02:59:47;;;;;;;0.98;0.82;;;21.90;99.90;;;;;;5006524;28;20077;-70
2022/08/25 03:02:13;;;;;;;1.50;1.40;;;21.90;99.90;;;;;;5005322;28;20133;-69
2022/08/25 03:04:39;;;;;;;0.55;0.55;;;21.80;99.90;;;;;;5006093;28;20490;-69
2022/08/25 03:07:05;;;;;;;0.10;0.10;;;21.80;99.90;;;;;;5002269;28;20045;-70
2022/08/25 03:09:31;;;;;;;0.55;0.55;;;21.80;99.90;;;;;;5001856;28;20058;-69
2022/08/25 03:11:56;;;;;;;0.00;0.00;;;21.80;99.90;;;;;;5008799;28;20812;-69
2022/08/25 03:14:22;;;;;;;0.20;0.20;;;21.80;99.90;;;;;;4996967;28;20079;-69
2022/08/25 03:16:48;;;;;;;0.32;0.32;;;21.80;99.90;;;;;;5004277;28;20034;-69
2022/08/25 03:19:14;;;;;;;1.45;0.80;;;21.70;99.90;;;;;;4992508;28;20064;-69
2022/08/25 03:21:39;;;;;;;0.75;0.68;;;21.70;99.90;;;;;;5008889;28;20045;-69
2022/08/25 03:24:06;;;;;;;0.13;0.13;;;21.70;99.90;;;;;;4997947;28;20493;-69
2022/08/25 03:29:17;;;;;;;0.00;0.00;;;21.70;99.90;;;;;;5000516;28;20046;-69
2022/08/25 03:31:44;;;;;;;0.05;0.00;;;21.60;99.90;;;;;;5001649;28;20555;-69
2022/08/25 03:34:11;;;;;;;0.30;0.30;;;21.60;99.90;;;;;;5007456;28;20046;-69
2022/08/25 03:36:37;;;;;;;1.05;0.17;;;21.60;99.90;;;;;;5008005;28;20073;-69
2022/08/25 03:39:03;;;;;;;0.00;0.00;;;21.60;99.90;;;;;;5007944;28;20044;-69
2022/08/25 03:41:31;;;;;;;0.10;0.10;;;21.60;99.90;;;;;;5008593;28;20564;-69
2022/08/25 03:43:58;;;;;;;0.17;0.17;;;21.60;99.90;;;;;;5008968;28;20046;-69
2022/08/25 03:46:28;;;;;;;0.45;0.45;;;21.60;99.90;;;;;;5008690;28;20053;-70
2022/08/25 03:48:54;;;;;;;1.20;0.32;;;21.60;99.90;;;;;;4992947;28;20116;-70
2022/08/25 03:51:26;;;;;;;0.13;0.13;;;21.60;99.90;;;;;;4989868;28;20050;-70
2022/08/25 03:53:52;;;;;;;0.00;0.00;;;21.50;99.90;;;;;;4997488;28;20052;-69
2022/08/25 03:56:19;;;;;;;0.10;0.10;;;21.50;99.90;;;;;;5002466;28;20049;-69
2022/08/25 03:58:45;;;;;;;0.22;0.08;;;21.50;99.90;;;;;;4994696;28;20072;-69
2022/08/25 04:01:11;;;;;;;2.17;0.63;;;21.50;99.90;;;;;;4998170;28;20450;-69
2022/08/25 04:03:37;;;;;;;0.10;0.10;;;21.40;99.90;;;;;;4997020;28;20124;-69
2022/08/25 04:06:04;;;;;;;1.05;0.20;;;21.40;99.90;;;;;;4998858;28;20486;-70
2022/08/25 04:08:30;;;;;;;0.13;0.13;;;21.40;99.90;;;;;;5001520;28;20045;-69
2022/08/25 04:10:55;;;;;;;0.65;0.50;;;21.40;99.90;;;;;;4998819;28;20103;-69
2022/08/25 04:13:21;;;;;;;0.10;0.10;;;21.40;99.90;;;;;;5007136;28;20204;-69
2022/08/25 04:15:47;;;;;;;0.10;0.10;;;21.40;99.90;;;;;;4997599;28;20080;-69
2022/08/25 04:18:13;;;;;;;0.00;0.00;;;21.40;99.90;;;;;;4991632;28;20042;-69
2022/08/25 04:20:41;;;;;;;0.00;0.00;;;21.40;99.90;;;;;;5001020;28;20056;-69
2022/08/25 04:23:07;;;;;;;0.00;0.00;;;21.40;99.90;;;;;;4993045;28;20100;-69
2022/08/25 04:25:33;;;;;;;0.00;0.00;;;21.40;99.90;;;;;;4994786;28;20097;-70
2022/08/25 04:27:59;;;;;;;0.30;0.25;;;21.40;99.90;;;;;;5007254;28;20057;-69
2022/08/25 04:30:24;;;;;;;0.00;0.00;;;21.30;99.90;;;;;;5000103;28;20077;-70
2022/08/25 04:32:50;;;;;;;0.00;0.00;;;21.30;99.90;;;;;;4988031;28;20786;-70
2022/08/25 04:35:16;;;;;;;1.02;0.30;;;21.30;99.90;;;;;;5004654;28;20092;-69
2022/08/25 04:37:41;;;;;;;0.10;0.10;;;21.30;99.90;;;;;;4988938;28;20077;-69
2022/08/25 04:40:08;;;;;;;0.15;0.15;;;21.30;99.90;;;;;;5002636;28;20076;-70
2022/08/25 04:42:34;;;;;;;1.52;0.43;;;21.30;99.90;;;;;;5007996;28;20133;-70
2022/08/25 04:45:00;;;;;;;0.08;0.08;;;21.30;99.90;;;;;;5006151;28;20129;-69
2022/08/25 04:47:27;;;;;;;0.00;0.00;;;21.30;99.90;;;;;;5009118;28;20057;-69
2022/08/25 04:49:53;;;;;;;0.95;0.40;;;21.30;99.90;;;;;;5008063;28;20132;-70
2022/08/25 04:52:19;;;;;;;0.38;0.38;;;21.20;99.90;;;;;;5008288;28;20140;-69
2022/08/25 04:54:45;;;;;;;0.13;0.13;;;21.30;99.90;;;;;;4998563;28;20645;-69
2022/08/25 04:57:10;;;;;;;0.00;0.00;;;21.30;99.90;;;;;;4995654;28;20042;-70
2022/08/25 04:59:36;;;;;;;0.30;0.20;;;21.30;99.90;;;;;;4996239;28;20065;-69
2022/08/25 05:02:03;;;;;;;0.30;0.30;;;21.20;99.90;;;;;;4989328;28;20046;-69
2022/08/25 05:04:31;;;;;;;0.13;0.10;;;21.20;99.90;;;;;;4993119;28;20402;-70
2022/08/25 05:06:57;;;;;;;0.73;0.45;;;21.20;99.90;;;;;;4995900;28;20137;-69
2022/08/25 05:09:24;;;;;;;0.22;0.22;;;21.20;99.90;;;;;;4995815;28;20145;-70
2022/08/25 05:11:50;;;;;;;0.05;0.05;;;21.20;99.90;;;;;;4994050;28;20104;-69
2022/08/25 05:14:20;;;;;;;0.38;0.38;;;21.20;99.90;;;;;;4996302;28;20067;-69
2022/08/25 05:16:46;;;;;;;0.10;0.10;;;21.30;99.90;;;;;;5008293;28;20525;-70
2022/08/25 05:19:12;;;;;;;2.00;0.35;;;21.20;99.90;;;;;;4999051;28;20050;-70
2022/08/25 05:21:38;;;;;;;0.10;0.10;;;21.20;99.90;;;;;;5000764;28;20525;-69
2022/08/25 05:24:03;;;;;;;0.00;0.00;;;21.20;99.90;;;;;;5006972;28;20600;-70
2022/08/25 05:26:30;;;;;;;0.10;0.10;;;21.20;99.90;;;;;;5006096;28;20038;-69
2022/08/25 05:28:58;;;;;;;1.95;0.40;;;21.20;99.90;;;;;;5001409;28;20089;-69
2022/08/25 05:31:25;;;;;;;0.08;0.08;;;21.20;99.90;;;;;;5012402;28;20054;-70
2022/08/25 05:33:52;;;;;;;0.00;0.00;;;21.20;99.90;;;;;;5010717;28;20148;-70
2022/08/25 05:36:18;;;;;;;0.00;0.00;;;21.20;99.90;;;;;;4993120;28;20061;-70
2022/08/25 05:38:44;;;;;;;0.10;0.10;;;21.20;99.90;;;;;;4991779;28;20047;-70
2022/08/25 05:41:14;;;;;;;0.35;0.35;;;21.20;99.90;;;;;;4991921;28;20069;-70
2022/08/25 05:43:42;;;;;;;0.00;0.00;;;21.20;99.90;;;;;;4994147;28;20065;-70
2022/08/25 05:46:09;;;;;;;0.20;0.20;;;21.20;99.90;;;;;;5010486;28;20116;-70
2022/08/25 05:48:35;;;;;;;0.10;0.10;;;21.20;99.90;;;;;;5004981;28;20137;-69
2022/08/25 05:51:03;;;;;;;0.63;0.28;;;21.30;99.90;;;;;;5002464;28;20061;-70
2022/08/25 05:53:30;;;;;;;1.85;0.65;;;21.20;99.90;;;;;;5000951;28;20042;-70
2022/08/25 05:55:57;;;;;;;0.75;0.75;;;21.30;99.90;;;;;;4999172;28;20049;-70
2022/08/25 05:58:27;;;;;;;0.40;0.40;;;21.30;99.90;;;;;;5010809;28;20069;-70
2022/08/25 06:00:53;;;;;;;0.30;0.30;;;21.30;99.90;;;;;;5006634;28;20050;-70
2022/08/25 06:03:18;;;;;;;0.00;0.00;;;21.40;99.90;;;;;;4998229;28;20506;-70
2022/08/25 06:05:44;;;;;;;0.00;0.00;;;21.40;99.90;;;;;;5007446;28;20127;-70
2022/08/25 06:08:10;;;;;;;2.25;0.85;;;21.40;99.90;;;;;;5009445;28;20057;-69
2022/08/25 06:10:36;;;;;;;0.10;0.10;;;21.50;99.90;;;;;;5007903;28;20033;-70
2022/08/25 06:13:03;;;;;;;0.80;0.38;;;21.40;99.90;;;;;;5001204;28;20050;-70
2022/08/25 06:15:29;;;;;;;2.70;0.32;;;21.40;99.90;;;;;;5002666;28;20044;-70
2022/08/25 06:17:57;;;;;;;0.57;0.57;;;21.50;99.90;;;;;;5011402;28;20620;-69
2022/08/25 06:20:25;;;;;;;0.57;0.25;;;21.50;99.90;;;;;;5007785;28;20136;-70
2022/08/25 06:22:51;;;;;;;0.00;0.00;;;21.50;99.90;;;;;;4990973;28;20486;-70
2022/08/25 06:25:19;;;;;;;0.20;0.10;;;21.60;99.90;;;;;;5005245;28;20106;-70
2022/08/25 06:27:45;;;;;;;0.00;0.00;;;21.60;99.90;;;;;;5011782;28;20052;-70
2022/08/25 06:30:15;;;;;;;0.25;0.20;;;21.70;99.90;;;;;;5002128;28;20041;-71
2022/08/25 06:32:42;;;;;;;0.35;0.35;;;21.70;99.90;;;;;;4995282;28;20042;-70
2022/08/25 06:35:11;;;;;;;0.00;0.00;;;21.70;99.90;;;;;;5001506;28;20049;-71
2022/08/25 06:37:38;;;;;;;0.90;0.13;;;21.80;99.90;;;;;;5008009;28;20049;-71
2022/08/25 06:40:08;;;;;;;0.10;0.10;;;21.80;99.90;;;;;;5003303;28;20050;-70
2022/08/25 06:42:34;;;;;;;0.10;0.10;;;21.90;99.90;;;;;;4994122;28;20057;-71
2022/08/25 06:45:00;;;;;;;4.95;0.30;;;21.90;99.90;;;;;;4993088;28;20058;-71
2022/08/25 06:47:26;;;;;;;0.30;0.30;;;22.00;99.90;;;;;;4995525;28;20042;-71
2022/08/25 06:49:52;;;;;;;0.20;0.20;;;22.10;99.90;;;;;;5009483;28;20045;-72
2022/08/25 06:52:18;;;;;;;0.00;0.00;;;22.10;99.90;;;;;;5010186;28;20412;-71
2022/08/25 06:54:43;;;;;;;0.55;0.55;;;22.10;99.90;;;;;;5001479;28;20057;-72
2022/08/25 06:57:09;;;;;;;0.20;0.20;;;22.20;99.90;;;;;;5003172;28;20045;-72
2022/08/25 06:59:35;;;;;;;0.00;0.00;;;22.20;99.90;;;;;;5010065;28;20057;-71
2022/08/25 07:02:03;;;;;;;0.00;0.00;;;22.30;99.90;;;;;;5000029;28;20042;-72
2022/08/25 07:04:29;;;;;;;0.08;0.05;;;22.40;99.90;;;;;;4990850;28;20053;-72
2022/08/25 07:06:54;;;;;;;0.08;0.08;;;22.40;99.90;;;;;;4990598;28;20056;-72
2022/08/25 07:09:20;;;;;;;0.22;0.22;;;22.50;99.90;;;;;;4991158;28;20046;-72
2022/08/25 07:11:46;;;;;;;0.08;0.08;;;22.50;99.90;;;;;;4990221;28;20042;-72
2022/08/25 07:14:15;;;;;;;0.00;0.00;;;22.60;99.90;;;;;;4990540;28;20077;-72
2022/08/25 07:16:41;;;;;;;0.05;0.00;;;22.60;99.90;;;;;;4991116;28;20153;-72
2022/08/25 07:19:08;;;;;;;0.00;0.00;;;22.70;99.90;;;;;;4996918;28;20049;-72
2022/08/25 07:21:36;;;;;;;0.55;0.55;;;22.80;99.90;;;;;;4995141;28;20498;-72
2022/08/25 07:24:05;;;;;;;0.10;0.10;;;22.80;99.90;;;;;;4988341;28;20546;-72
2022/08/25 07:26:35;;;;;;;0.05;0.05;;;22.90;99.90;;;;;;4992671;28;20056;-72
2022/08/25 07:29:04;;;;;;;0.00;0.00;;;23.00;99.90;;;;;;5010017;28;20056;-72
2022/08/25 07:31:30;;;;;;;0.20;0.20;;;23.10;99.90;;;;;;5003279;28;20088;-72
2022/08/25 07:36:41;;;;;;;0.17;0.17;;;23.10;99.90;;;;;;4992041;28;20057;-72
2022/08/25 07:39:07;;;;;;;0.00;0.00;;;23.20;99.90;;;;;;5006100;28;20494;-72
2022/08/25 07:41:37;;;;;;;0.00;0.00;;;23.30;99.90;;;;;;4990932;28;20072;-73
2022/08/25 07:44:04;;;;;;;0.00;0.00;;;23.30;99.90;;;;;;4989847;28;20097;-73
2022/08/25 07:46:29;;;;;;;0.00;0.00;;;23.40;99.90;;;;;;4992343;28;20046;-73
2022/08/25 07:48:55;;;;;;;0.10;0.03;;;23.40;99.90;;;;;;4996254;28;20115;-73
2022/08/25 07:51:21;;;;;;;0.00;0.00;;;23.60;99.90;;;;;;5004323;28;20034;-73
2022/08/25 07:53:46;;;;;;;0.47;0.15;;;23.60;99.90;;;;;;4989922;28;20498;-73
2022/08/25 07:56:14;;;;;;;0.00;0.00;;;23.60;99.90;;;;;;4989379;28;20074;-72
2022/08/25 07:58:41;;;;;;;0.00;0.00;;;23.70;99.90;;;;;;4999611;28;20395;-73
2022/08/25 08:01:12;;;;;;;0.00;0.00;;;23.70;99.90;;;;;;4992550;28;20137;-73
2022/08/25 08:03:37;;;;;;;0.00;0.00;;;23.80;99.90;;;;;;4989463;28;20925;-73
2022/08/25 08:06:11;;;;;;;0.00;0.00;;;23.90;99.90;;;;;;4991325;28;20134;-73
2022/08/25 08:08:44;;;;;;;0.30;0.30;;;23.90;99.90;;;;;;4988520;28;20064;-73
2022/08/25 08:11:16;;;;;;;0.10;0.10;;;24.00;99.90;;;;;;5005005;28;20124;-72
2022/08/25 08:13:42;;;;;;;0.03;0.03;;;24.10;99.90;;;;;;5008789;28;20494;-73
2022/08/25 08:16:10;;;;;;;0.10;0.10;;;24.10;99.90;;;;;;4995846;28;20053;-72
2022/08/25 08:18:35;;;;;;;0.10;0.10;;;24.20;99.90;;;;;;4992995;28;20505;-73
2022/08/25 08:21:01;;;;;;;0.00;0.00;;;24.30;99.90;;;;;;5007994;28;20096;-73
2022/08/25 08:23:28;;;;;;;0.00;0.00;;;24.30;99.90;;;;;;5007751;28;20046;-71
2022/08/25 08:25:54;;;;;;;0.00;0.00;;;24.40;99.90;;;;;;4989952;28;20100;-72
2022/08/25 08:28:20;;;;;;;0.38;0.22;;;24.50;99.90;;;;;;5007652;28;20113;-73
2022/08/25 08:30:46;;;;;;;0.10;0.10;;;24.50;99.90;;;;;;4991607;28;20038;-73
2022/08/25 08:33:11;;;;;;;0.15;0.08;;;24.60;99.90;;;;;;5006450;28;20100;-72
2022/08/25 08:35:37;;;;;;;0.25;0.10;;;24.70;99.90;;;;;;5007382;28;20046;-73
2022/08/25 08:38:03;;;;;;;0.00;0.00;;;24.70;99.90;;;;;;5004782;28;20401;-72
2022/08/25 08:40:30;;;;;;;0.00;0.00;;;24.80;99.90;;;;;;4988861;28;20045;-73
2022/08/25 08:43:05;;;;;;;1.55;0.52;;;24.90;99.90;;;;;;4996131;28;20726;-73
2022/08/25 08:45:43;;;;;;;0.00;0.00;;;25.00;99.90;;;;;;4987034;28;20061;-73
2022/08/25 08:48:39;;;;;;;0.17;0.13;;;25.10;99.90;;;;;;4991163;28;20054;-73
2022/08/25 08:51:31;;;;;;;0.00;0.00;;;25.20;99.90;;;;;;4987572;28;20077;-72
2022/08/25 08:54:13;;;;;;;0.20;0.20;;;25.30;99.90;;;;;;4996201;28;20053;-72
2022/08/25 08:56:42;;;;;;;0.30;0.30;;;25.40;99.90;;;;;;5003233;28;20049;-72
2022/08/25 08:59:18;;;;;;;0.00;0.00;;;25.50;99.90;;;;;;5005415;28;20056;-73
2022/08/25 09:01:46;;;;;;;0.10;0.10;;;25.50;99.90;;;;;;4996906;28;20110;-72
2022/08/25 09:04:26;;;;;;;0.13;0.10;;;25.60;99.90;;;;;;4993604;28;20081;-72
2022/08/25 09:06:52;;;;;;;0.10;0.10;;;25.90;99.90;;;;;;4993940;28;20050;-72
2022/08/25 09:09:25;;;;;;;0.25;0.25;;;26.60;99.90;;;;;;5002512;28;20820;-70
2022/08/25 09:12:18;;;;;;;0.25;0.25;;;26.90;99.90;;;;;;4988737;28;20050;-71
2022/08/25 09:14:56;;;;;;;1.42;0.95;;;27.60;99.90;;;;;;5004103;28;20078;-71
2022/08/25 09:17:45;;;;;;;0.00;0.00;;;28.10;99.90;;;;;;5008092;28;20262;-71
2022/08/25 09:20:46;;;;;;;0.00;0.00;;;28.90;99.90;;;;;;4988863;28;20509;-71
2022/08/25 09:23:18;;;;;;;0.00;0.00;;;29.60;99.90;;;;;;5000817;28;20100;-71
2022/08/25 09:25:56;;;;;;;0.00;0.00;;;30.00;99.30;;;;;;4988556;28;20106;-71
2022/08/25 09:28:29;;;;;;;0.00;0.00;;;30.60;99.20;;;;;;4995391;28;20100;-71
2022/08/25 09:31:22;;;;;;;0.10;0.00;;;30.80;98.10;;;;;;4990893;28;20049;-71
2022/08/25 09:33:52;;;;;;;0.10;0.10;;;31.00;97.30;;;;;;4987982;28;20062;-71
2022/08/25 09:36:18;;;;;;;0.10;0.10;;;31.20;97.40;;;;;;4989269;28;20050;-71
2022/08/25 09:38:44;;;;;;;0.20;0.20;;;31.30;96.80;;;;;;5006005;28;20058;-68
2022/08/25 09:41:10;;;;;;;0.00;0.00;;;31.40;96.20;;;;;;5005083;28;20042;-68
2022/08/25 09:43:39;;;;;;;0.20;0.17;;;31.40;95.20;;;;;;4988432;28;20134;-68
2022/08/25 09:46:04;;;;;;;0.00;0.00;;;31.60;95.70;;;;;;4988262;28;20124;-68
2022/08/25 09:48:43;;;;;;;0.00;0.00;;;31.60;95.60;;;;;;4992544;28;20069;-68
2022/08/25 09:51:29;;;;;;;0.17;0.00;;;31.40;94.90;;;;;;5007292;28;20046;-68
2022/08/25 09:54:13;;;;;;;0.00;0.00;;;31.70;95.30;;;;;;4988694;28;20054;-68
2022/08/25 09:56:56;;;;;;;0.80;0.52;;;31.80;94.70;;;;;;4993487;28;20489;-69
2022/08/25 09:59:33;;;;;;;0.00;0.00;;;31.80;94.20;;;;;;4990636;28;20086;-68
2022/08/25 10:02:02;;;;;;;0.00;0.00;;;31.90;94.10;;;;;;4988063;28;20039;-69
2022/08/25 10:04:35;;;;;;;0.00;0.00;;;32.10;93.80;;;;;;4988975;28;20506;-68
2022/08/25 10:07:17;;;;;;;0.25;0.25;;;32.20;93.90;;;;;;4995620;28;20057;-68
2022/08/25 10:09:52;;;;;;;0.20;0.08;;;32.30;94.20;;;;;;5007057;28;20401;-68
2022/08/25 10:12:28;;;;;;;0.08;0.08;;;32.50;93.90;;;;;;4998325;28;20346;-69
2022/08/25 10:14:54;;;;;;;1.08;0.40;;;32.40;93.30;;;;;;5007443;28;20454;-68
2022/08/25 10:17:26;;;;;;;0.00;0.00;;;32.50;93.50;;;;;;5010854;28;20053;-69
2022/08/25 10:19:54;;;;;;;0.10;0.00;;;32.50;93.20;;;;;;4998181;28;20053;-68
2022/08/25 10:22:22;;;;;;;0.25;0.20;;;32.60;92.80;;;;;;5009249;28;20034;-69
2022/08/25 10:24:48;;;;;;;0.38;0.30;;;32.40;92.30;;;;;;4989383;28;20046;-69
2022/08/25 10:27:23;;;;;;;0.10;0.10;;;32.10;92.90;;;;;;5000101;28;20049;-69
2022/08/25 10:30:25;;;;;;;0.00;0.00;;;32.10;92.10;;;;;;5009392;28;20046;-68
2022/08/25 10:33:03;;;;;;;0.00;0.00;;;32.00;91.70;;;;;;5004744;28;20441;-69
2022/08/25 10:35:52;;;;;;;3.92;0.63;;;31.90;92.10;;;;;;5004087;28;20478;-68
2022/08/25 10:38:44;;;;;;;0.10;0.10;;;31.70;91.20;;;;;;4991111;28;20180;-68
2022/08/25 10:41:35;;;;;;;0.00;0.00;;;31.60;91.30;;;;;;4989977;28;20046;-68
2022/08/25 10:47:33;;;;;;;0.00;0.00;;;31.60;91.60;;;;;;4978218;28;20512;-69
2022/08/25 10:50:07;;;;;;;0.00;0.00;;;31.70;92.40;;;;;;5007581;28;20053;-69
2022/08/25 10:53:07;;;;;;;0.00;0.00;;;31.70;91.40;;;;;;4996894;28;20128;-69
2022/08/25 10:55:53;;;;;;;0.10;0.10;;;31.90;91.00;;;;;;4990905;28;20083;-69
2022/08/25 10:58:44;;;;;;;0.10;0.10;;;31.90;92.40;;;;;;4990168;28;20473;-69
2022/08/25 11:01:41;;;;;;;0.20;0.20;;;31.80;91.70;;;;;;5002120;28;20042;-69
2022/08/25 11:04:13;;;;;;;0.60;0.40;;;32.00;91.30;;;;;;4998763;28;20124;-69
2022/08/25 11:06:54;;;;;;;0.30;0.23;;;32.00;91.00;;;;;;4990780;28;20096;-69
2022/08/25 11:09:24;;;;;;;6.50;0.55;;;32.00;92.00;;;;;;4999808;28;20038;-69
2022/08/25 11:11:57;;;;;;;0.00;0.00;;;32.10;90.80;;;;;;4990637;28;20608;-69
2022/08/25 11:14:31;;;;;;;0.10;0.10;;;32.20;90.50;;;;;;5003070;28;20042;-69
2022/08/25 11:17:06;;;;;;;0.15;0.10;;;32.40;91.80;;;;;;5006589;28;20042;-70
2022/08/25 11:19:35;;;;;;;0.00;0.00;;;32.40;90.70;;;;;;4997613;28;20060;-70
2022/08/25 11:22:18;;;;;;;1.15;0.28;;;32.50;91.00;;;;;;4994996;28;20084;-71
2022/08/25 11:25:10;;;;;;;0.43;0.30;;;32.60;91.40;;;;;;4997677;28;20049;-70
2022/08/25 11:27:59;;;;;;;0.15;0.10;;;32.80;91.20;;;;;;5008415;28;20038;-70
2022/08/25 11:30:24;;;;;;;0.30;0.30;;;33.00;91.10;;;;;;4996499;28;20050;-70
2022/08/25 11:32:52;;;;;;;0.00;0.00;;;32.80;90.70;;;;;;4998597;28;20535;-70
2022/08/25 11:35:36;;;;;;;2.60;0.63;;;33.00;91.00;;;;;;4996712;28;20054;-70
2022/08/25 11:38:11;;;;;;;0.10;0.10;;;33.00;90.60;;;;;;4990112;28;20732;-71
2022/08/25 11:40:55;;;;;;;0.00;0.00;;;33.10;90.80;;;;;;4989771;28;20054;-70
2022/08/25 11:43:33;;;;;;;0.05;0.05;;;33.20;90.60;;;;;;4995357;28;20121;-70
2022/08/25 11:46:38;;;;;;;0.10;0.10;;;33.30;90.20;;;;;;4990223;28;20410;-71
2022/08/25 11:49:21;;;;;;;0.00;0.00;;;33.30;88.70;;;;;;4991805;28;20081;-70
2022/08/25 11:51:49;;;;;;;0.10;0.10;;;33.40;89.70;;;;;;4990073;28;20409;-70
2022/08/25 11:54:27;;;;;;;0.00;0.00;;;33.40;89.40;;;;;;4998141;28;20085;-70
2022/08/25 11:57:04;;;;;;;0.03;0.03;;;33.60;89.80;;;;;;4995260;28;20042;-70
2022/08/25 11:59:48;;;;;;;0.20;0.20;;;33.80;90.40;;;;;;4988165;28;20054;-70
2022/08/25 12:02:32;;;;;;;0.10;0.10;;;33.90;88.40;;;;;;4989308;28;20616;-70
2022/08/25 12:04:58;;;;;;;0.55;0.25;;;34.00;87.70;;;;;;4991627;28;20046;-71
2022/08/25 12:07:29;;;;;;;0.17;0.10;;;34.10;87.00;;;;;;4989680;28;20238;-70
2022/08/25 12:10:08;;;;;;;0.17;0.17;;;34.20;88.00;;;;;;4989561;28;20043;-70
2022/08/25 12:12:40;;;;;;;0.00;0.00;;;34.30;87.00;;;;;;4989469;28;20089;-70
2022/08/25 12:15:22;;;;;;;0.00;0.00;;;34.30;87.40;;;;;;4990716;28;20170;-70
2022/08/25 12:18:14;;;;;;;0.00;0.00;;;34.40;86.90;;;;;;4997250;28;20140;-71
2022/08/25 12:20:52;;;;;;;0.00;0.00;;;34.60;88.00;;;;;;4990904;28;20069;-71
2022/08/25 12:23:41;;;;;;;0.80;0.35;;;34.70;87.10;;;;;;5004107;28;20109;-71
2022/08/25 12:26:32;;;;;;;0.10;0.10;;;34.70;86.90;;;;;;4999917;28;20104;-72
2022/08/25 12:29:36;;;;;;;0.00;0.00;;;34.90;86.20;;;;;;4991036;28;20669;-72
2022/08/25 12:32:16;;;;;;;0.00;0.00;;;35.00;85.30;;;;;;4989621;28;20142;-72
2022/08/25 12:34:51;;;;;;;0.15;0.15;;;35.00;85.40;;;;;;4991619;28;20460;-72
2022/08/25 12:37:20;;;;;;;0.00;0.00;;;35.10;86.40;;;;;;5008418;28;20050;-71
2022/08/25 12:39:49;;;;;;;0.20;0.20;;;35.00;84.70;;;;;;5009021;28;20099;-72
2022/08/25 12:42:42;;;;;;;0.00;0.00;;;35.00;84.60;;;;;;4993124;28;20050;-72
2022/08/25 12:45:36;;;;;;;0.00;0.00;;;35.20;83.40;;;;;;4996557;28;20402;-72
2022/08/25 12:48:26;;;;;;;0.73;0.38;;;35.20;85.90;;;;;;4994080;28;20061;-72
2022/08/25 12:50:59;;;;;;;0.00;0.00;;;35.50;85.20;;;;;;5006681;28;20053;-72
2022/08/25 12:53:40;;;;;;;0.05;0.05;;;35.70;85.50;;;;;;5007300;28;20054;-72
2022/08/25 12:56:33;;;;;;;0.90;0.20;;;35.60;82.70;;;;;;5007508;28;20085;-72
2022/08/25 12:59:02;;;;;;;0.30;0.20;;;35.80;83.20;;;;;;4996829;28;20185;-72
2022/08/25 13:02:06;;;;;;;0.35;0.28;;;35.60;82.40;;;;;;4995237;28;20050;-72
2022/08/25 13:04:53;;;;;;;0.08;0.08;;;35.70;84.00;;;;;;4997230;28;20046;-71
2022/08/25 13:07:35;;;;;;;0.15;0.10;;;35.90;84.00;;;;;;5001997;28;20050;-71
2022/08/25 13:10:14;;;;;;;0.25;0.05;;;36.10;83.40;;;;;;5003187;28;20057;-72
2022/08/25 13:12:53;;;;;;;0.43;0.43;;;35.90;81.00;;;;;;5003844;28;20050;-72
2022/08/25 13:15:41;;;;;;;0.20;0.20;;;36.10;83.00;;;;;;4998075;28;20061;-72
2022/08/25 13:18:26;;;;;;;0.10;0.00;;;36.20;81.70;;;;;;4990434;28;20046;-72
2022/08/25 13:21:13;;;;;;;0.00;0.00;;;36.10;81.40;;;;;;5003213;28;20056;-72